sensor_id;sensor_type;location;lat;lon;timestamp;pressure;altitude;pressure_sealevel;temperature;humidity
45357;BME280;31092;51.924;21.448;2023-12-04T00:01:14;100200.75;;;-3.42;100.00
45357;BME280;31092;51.924;21.448;2023-12-04T00:03:40;100157.19;;;-3.65;100.00
45357;BME280;31092;51.924;21.448;2023-12-04T00:06:06;100130.56;;;-3.76;100.00
45357;BME280;31092;51.924;21.448;2023-12-04T00:08:32;100180.88;;;-3.48;100.00
45357;BME280;31092;51.924;21.448;2023-12-04T00:10:58;100253.34;;;-3.06;100.00
45357;BME280;31092;51.924;21.448;2023-12-04T00:13:24;100293.19;;;-2.95;100.00
45357;BME280;31092;51.924;21.448;2023-12-04T00:15:49;100213.91;;;-3.25;100.00
45357;BME280;31092;51.924;21.448;2023-12-04T00:18:15;100277.22;;;-2.92;100.00
45357;BME280;31092;51.924;21.448;2023-12-04T00:20:40;100264.50;;;-3.01;100.00
45357;BME280;31092;51.924;21.448;2023-12-04T00:23:06;100262.00;;;-3.04;100.00
45357;BME280;31092;51.924;21.448;2023-12-04T00:25:31;100216.09;;;-3.33;100.00
45357;BME280;31092;51.924;21.448;2023-12-04T00:27:57;100185.03;;;-3.44;100.00
45357;BME280;31092;51.924;21.448;2023-12-04T00:30:22;100176.59;;;-3.50;100.00
45357;BME280;31092;51.924;21.448;2023-12-04T00:32:48;100179.16;;;-3.49;100.00
45357;BME280;31092;51.924;21.448;2023-12-04T00:35:13;100265.88;;;-2.94;100.00
45357;BME280;31092;51.924;21.448;2023-12-04T00:37:39;100276.03;;;-2.86;100.00
45357;BME280;31092;51.924;21.448;2023-12-04T00:40:05;100283.09;;;-2.86;100.00
45357;BME280;31092;51.924;21.448;2023-12-04T00:42:32;100161.75;;;-3.51;100.00
45357;BME280;31092;51.924;21.448;2023-12-04T00:44:58;100249.53;;;-3.00;100.00
45357;BME280;31092;51.924;21.448;2023-12-04T00:47:23;100218.78;;;-3.17;100.00
45357;BME280;31092;51.924;21.448;2023-12-04T00:49:49;100244.66;;;-3.08;100.00
45357;BME280;31092;51.924;21.448;2023-12-04T00:52:14;100155.94;;;-3.58;100.00
45357;BME280;31092;51.924;21.448;2023-12-04T00:54:40;100279.75;;;-2.90;100.00
45357;BME280;31092;51.924;21.448;2023-12-04T00:57:06;100249.84;;;-3.06;100.00
45357;BME280;31092;51.924;21.448;2023-12-04T00:59:31;100164.94;;;-3.62;100.00
45357;BME280;31092;51.924;21.448;2023-12-04T01:01:57;100155.25;;;-3.62;100.00
45357;BME280;31092;51.924;21.448;2023-12-04T01:04:22;100290.22;;;-2.89;100.00
45357;BME280;31092;51.924;21.448;2023-12-04T01:06:48;100162.06;;;-3.57;100.00
45357;BME280;31092;51.924;21.448;2023-12-04T01:09:13;100170.09;;;-3.61;100.00
45357;BME280;31092;51.924;21.448;2023-12-04T01:11:39;100281.38;;;-2.87;100.00
45357;BME280;31092;51.924;21.448;2023-12-04T01:14:04;100249.16;;;-3.10;100.00
45357;BME280;31092;51.924;21.448;2023-12-04T01:16:30;100150.22;;;-3.66;100.00
45357;BME280;31092;51.924;21.448;2023-12-04T01:18:56;100200.16;;;-3.30;100.00
45357;BME280;31092;51.924;21.448;2023-12-04T01:21:21;100152.75;;;-3.65;100.00
45357;BME280;31092;51.924;21.448;2023-12-04T01:23:47;100239.56;;;-3.11;100.00
45357;BME280;31092;51.924;21.448;2023-12-04T01:26:12;100268.66;;;-2.97;100.00
45357;BME280;31092;51.924;21.448;2023-12-04T01:28:38;100274.56;;;-2.92;100.00
45357;BME280;31092;51.924;21.448;2023-12-04T01:31:04;100281.28;;;-2.86;100.00
45357;BME280;31092;51.924;21.448;2023-12-04T01:33:30;100152.66;;;-3.63;100.00
45357;BME280;31092;51.924;21.448;2023-12-04T01:35:55;100277.97;;;-2.90;100.00
45357;BME280;31092;51.924;21.448;2023-12-04T01:38:21;100268.06;;;-3.02;100.00
45357;BME280;31092;51.924;21.448;2023-12-04T01:40:46;100270.31;;;-2.94;100.00
45357;BME280;31092;51.924;21.448;2023-12-04T01:43:12;100283.09;;;-2.86;100.00
45357;BME280;31092;51.924;21.448;2023-12-04T01:45:38;100268.44;;;-2.92;100.00
45357;BME280;31092;51.924;21.448;2023-12-04T01:48:04;100199.34;;;-3.32;100.00
45357;BME280;31092;51.924;21.448;2023-12-04T01:50:33;100289.75;;;-2.79;100.00
45357;BME280;31092;51.924;21.448;2023-12-04T01:53:01;100297.66;;;-2.79;100.00
45357;BME280;31092;51.924;21.448;2023-12-04T01:55:28;100269.53;;;-2.96;100.00
45357;BME280;31092;51.924;21.448;2023-12-04T01:57:54;100251.63;;;-3.07;100.00
45357;BME280;31092;51.924;21.448;2023-12-04T02:00:21;100273.78;;;-2.94;100.00
45357;BME280;31092;51.924;21.448;2023-12-04T02:02:47;100250.53;;;-3.03;100.00
45357;BME280;31092;51.924;21.448;2023-12-04T02:05:14;100217.41;;;-3.24;100.00
45357;BME280;31092;51.924;21.448;2023-12-04T02:07:42;100290.84;;;-2.83;100.00
45357;BME280;31092;51.924;21.448;2023-12-04T02:10:08;100254.66;;;-2.97;100.00
45357;BME280;31092;51.924;21.448;2023-12-04T02:12:34;100295.69;;;-2.76;100.00
45357;BME280;31092;51.924;21.448;2023-12-04T02:15:00;100211.91;;;-3.20;100.00
45357;BME280;31092;51.924;21.448;2023-12-04T02:17:26;100176.06;;;-3.40;100.00
45357;BME280;31092;51.924;21.448;2023-12-04T02:19:52;100164.97;;;-3.46;100.00
45357;BME280;31092;51.924;21.448;2023-12-04T02:22:18;100274.94;;;-2.82;100.00
45357;BME280;31092;51.924;21.448;2023-12-04T02:24:45;100280.69;;;-2.74;100.00
45357;BME280;31092;51.924;21.448;2023-12-04T02:27:17;100253.31;;;-2.89;100.00
45357;BME280;31092;51.924;21.448;2023-12-04T02:29:49;100291.72;;;-2.67;100.00
45357;BME280;31092;51.924;21.448;2023-12-04T02:32:18;100263.47;;;-2.81;100.00
45357;BME280;31092;51.924;21.448;2023-12-04T02:34:45;100264.38;;;-2.82;100.00
45357;BME280;31092;51.924;21.448;2023-12-04T02:37:14;100116.31;;;-3.72;100.00
45357;BME280;31092;51.924;21.448;2023-12-04T02:39:39;100174.03;;;-3.34;100.00
45357;BME280;31092;51.924;21.448;2023-12-04T02:42:05;100270.19;;;-2.75;100.00
45357;BME280;31092;51.924;21.448;2023-12-04T02:44:31;100250.84;;;-2.92;100.00
45357;BME280;31092;51.924;21.448;2023-12-04T02:46:57;100197.16;;;-3.24;100.00
45357;BME280;31092;51.924;21.448;2023-12-04T02:49:22;100286.00;;;-2.75;100.00
45357;BME280;31092;51.924;21.448;2023-12-04T02:51:48;100185.50;;;-3.35;100.00
45357;BME280;31092;51.924;21.448;2023-12-04T02:54:13;100298.63;;;-2.65;100.00
45357;BME280;31092;51.924;21.448;2023-12-04T02:56:39;100291.22;;;-2.74;100.00
45357;BME280;31092;51.924;21.448;2023-12-04T02:59:04;100200.00;;;-3.27;100.00
45357;BME280;31092;51.924;21.448;2023-12-04T03:01:30;100255.25;;;-2.92;100.00
45357;BME280;31092;51.924;21.448;2023-12-04T03:03:55;100211.81;;;-3.18;100.00
45357;BME280;31092;51.924;21.448;2023-12-04T03:06:21;100305.78;;;-2.67;100.00
45357;BME280;31092;51.924;21.448;2023-12-04T03:08:46;100289.19;;;-2.69;100.00
45357;BME280;31092;51.924;21.448;2023-12-04T03:11:12;100262.16;;;-2.90;100.00
45357;BME280;31092;51.924;21.448;2023-12-04T03:13:38;100153.00;;;-3.52;100.00
45357;BME280;31092;51.924;21.448;2023-12-04T03:16:03;100309.88;;;-2.61;100.00
45357;BME280;31092;51.924;21.448;2023-12-04T03:18:29;100294.28;;;-2.66;100.00
45357;BME280;31092;51.924;21.448;2023-12-04T03:20:54;100212.75;;;-3.19;100.00
45357;BME280;31092;51.924;21.448;2023-12-04T03:23:20;100251.16;;;-2.98;100.00
45357;BME280;31092;51.924;21.448;2023-12-04T03:25:46;100287.78;;;-2.76;100.00
45357;BME280;31092;51.924;21.448;2023-12-04T03:28:12;100297.50;;;-2.76;100.00
45357;BME280;31092;51.924;21.448;2023-12-04T03:30:41;100242.81;;;-3.06;100.00
45357;BME280;31092;51.924;21.448;2023-12-04T03:33:10;100234.22;;;-3.09;100.00
45357;BME280;31092;51.924;21.448;2023-12-04T03:35:36;100313.84;;;-2.70;100.00
45357;BME280;31092;51.924;21.448;2023-12-04T03:38:01;100208.94;;;-3.31;100.00
45357;BME280;31092;51.924;21.448;2023-12-04T03:40:27;100247.53;;;-3.13;100.00
45357;BME280;31092;51.924;21.448;2023-12-04T03:42:52;100309.66;;;-2.74;100.00
45357;BME280;31092;51.924;21.448;2023-12-04T03:45:18;100305.56;;;-2.79;100.00
45357;BME280;31092;51.924;21.448;2023-12-04T03:47:43;100308.50;;;-2.85;100.00
45357;BME280;31092;51.924;21.448;2023-12-04T03:50:09;100320.44;;;-2.78;100.00
45357;BME280;31092;51.924;21.448;2023-12-04T03:52:34;100343.53;;;-2.66;100.00
45357;BME280;31092;51.924;21.448;2023-12-04T03:55:00;100331.47;;;-2.70;100.00
45357;BME280;31092;51.924;21.448;2023-12-04T03:57:25;100314.81;;;-2.88;100.00
45357;BME280;31092;51.924;21.448;2023-12-04T03:59:51;100326.66;;;-2.79;100.00
45357;BME280;31092;51.924;21.448;2023-12-04T04:02:16;100309.00;;;-2.95;100.00
45357;BME280;31092;51.924;21.448;2023-12-04T04:04:42;100345.94;;;-2.79;100.00
45357;BME280;31092;51.924;21.448;2023-12-04T04:07:08;100242.44;;;-3.33;100.00
45357;BME280;31092;51.924;21.448;2023-12-04T04:09:34;100355.41;;;-2.75;100.00
45357;BME280;31092;51.924;21.448;2023-12-04T04:11:59;100234.44;;;-3.49;100.00
45357;BME280;31092;51.924;21.448;2023-12-04T04:14:25;100249.63;;;-3.37;100.00
45357;BME280;31092;51.924;21.448;2023-12-04T04:16:50;100321.47;;;-2.98;100.00
45357;BME280;31092;51.924;21.448;2023-12-04T04:19:16;100314.72;;;-3.04;100.00
45357;BME280;31092;51.924;21.448;2023-12-04T04:21:41;100237.94;;;-3.48;100.00
45357;BME280;31092;51.924;21.448;2023-12-04T04:24:22;100263.56;;;-3.34;100.00
45357;BME280;31092;51.924;21.448;2023-12-04T04:26:49;100259.38;;;-3.39;100.00
45357;BME280;31092;51.924;21.448;2023-12-04T04:29:15;100251.88;;;-3.46;100.00
45357;BME280;31092;51.924;21.448;2023-12-04T04:31:40;100340.47;;;-2.92;100.00
45357;BME280;31092;51.924;21.448;2023-12-04T04:34:06;100338.88;;;-2.96;100.00
45357;BME280;31092;51.924;21.448;2023-12-04T04:36:31;100142.84;;;-4.12;100.00
45357;BME280;31092;51.924;21.448;2023-12-04T04:38:57;100216.94;;;-3.67;100.00
45357;BME280;31092;51.924;21.448;2023-12-04T04:41:22;100234.91;;;-3.58;100.00
45357;BME280;31092;51.924;21.448;2023-12-04T04:43:48;100331.91;;;-2.97;100.00
45357;BME280;31092;51.924;21.448;2023-12-04T04:46:14;100338.28;;;-3.01;100.00
45357;BME280;31092;51.924;21.448;2023-12-04T04:48:40;100272.41;;;-3.35;100.00
45357;BME280;31092;51.924;21.448;2023-12-04T04:51:06;100302.31;;;-3.19;100.00
45357;BME280;31092;51.924;21.448;2023-12-04T04:53:31;100249.78;;;-3.57;100.00
45357;BME280;31092;51.924;21.448;2023-12-04T04:55:57;100341.06;;;-3.04;100.00
45357;BME280;31092;51.924;21.448;2023-12-04T04:58:22;100345.50;;;-3.04;100.00
45357;BME280;31092;51.924;21.448;2023-12-04T05:00:48;100337.81;;;-3.09;100.00
45357;BME280;31092;51.924;21.448;2023-12-04T05:03:14;100361.69;;;-2.95;100.00
45357;BME280;31092;51.924;21.448;2023-12-04T05:05:39;100365.44;;;-2.99;100.00
45357;BME280;31092;51.924;21.448;2023-12-04T05:08:05;100367.81;;;-2.94;100.00
45357;BME280;31092;51.924;21.448;2023-12-04T05:10:30;100377.41;;;-2.93;100.00
45357;BME280;31092;51.924;21.448;2023-12-04T05:12:56;100367.34;;;-3.02;100.00
45357;BME280;31092;51.924;21.448;2023-12-04T05:15:21;100351.00;;;-3.09;100.00
45357;BME280;31092;51.924;21.448;2023-12-04T05:17:47;100325.47;;;-3.26;100.00
45357;BME280;31092;51.924;21.448;2023-12-04T05:20:12;100385.19;;;-2.90;100.00
45357;BME280;31092;51.924;21.448;2023-12-04T05:22:38;100297.34;;;-3.43;100.00
45357;BME280;31092;51.924;21.448;2023-12-04T05:25:04;100379.59;;;-3.01;100.00
45357;BME280;31092;51.924;21.448;2023-12-04T05:27:29;100298.28;;;-3.44;100.00
45357;BME280;31092;51.924;21.448;2023-12-04T05:29:55;100375.56;;;-3.08;100.00
45357;BME280;31092;51.924;21.448;2023-12-04T05:32:21;100382.00;;;-2.97;100.00
45357;BME280;31092;51.924;21.448;2023-12-04T05:34:46;100357.34;;;-3.13;100.00
45357;BME280;31092;51.924;21.448;2023-12-04T05:37:12;100400.16;;;-2.91;100.00
45357;BME280;31092;51.924;21.448;2023-12-04T05:39:37;100378.94;;;-3.06;100.00
45357;BME280;31092;51.924;21.448;2023-12-04T05:42:03;100365.25;;;-3.13;100.00
45357;BME280;31092;51.924;21.448;2023-12-04T05:44:28;100329.72;;;-3.41;100.00
45357;BME280;31092;51.924;21.448;2023-12-04T05:46:54;100373.44;;;-3.19;100.00
45357;BME280;31092;51.924;21.448;2023-12-04T05:49:19;100377.53;;;-3.14;100.00
45357;BME280;31092;51.924;21.448;2023-12-04T05:51:45;100349.56;;;-3.33;100.00
45357;BME280;31092;51.924;21.448;2023-12-04T05:54:10;100283.69;;;-3.68;100.00
45357;BME280;31092;51.924;21.448;2023-12-04T05:56:36;100305.19;;;-3.60;100.00
45357;BME280;31092;51.924;21.448;2023-12-04T05:59:01;100370.88;;;-3.21;100.00
45357;BME280;31092;51.924;21.448;2023-12-04T06:01:27;100404.53;;;-3.08;100.00
45357;BME280;31092;51.924;21.448;2023-12-04T06:03:52;100345.59;;;-3.42;100.00
45357;BME280;31092;51.924;21.448;2023-12-04T06:06:18;100288.59;;;-3.79;100.00
45357;BME280;31092;51.924;21.448;2023-12-04T06:08:43;100388.56;;;-3.23;100.00
45357;BME280;31092;51.924;21.448;2023-12-04T06:11:09;100267.97;;;-3.89;100.00
45357;BME280;31092;51.924;21.448;2023-12-04T06:13:34;100317.66;;;-3.64;100.00
45357;BME280;31092;51.924;21.448;2023-12-04T06:16:00;100409.03;;;-3.10;100.00
45357;BME280;31092;51.924;21.448;2023-12-04T06:18:25;100331.47;;;-3.58;100.00
45357;BME280;31092;51.924;21.448;2023-12-04T06:20:51;100321.47;;;-3.69;100.00
45357;BME280;31092;51.924;21.448;2023-12-04T06:23:17;100414.56;;;-3.17;100.00
45357;BME280;31092;51.924;21.448;2023-12-04T06:25:43;100311.06;;;-3.72;100.00
45357;BME280;31092;51.924;21.448;2023-12-04T06:28:09;100312.19;;;-3.78;100.00
45357;BME280;31092;51.924;21.448;2023-12-04T06:30:35;100346.34;;;-3.57;100.00
45357;BME280;31092;51.924;21.448;2023-12-04T06:33:01;100398.44;;;-3.28;100.00
45357;BME280;31092;51.924;21.448;2023-12-04T06:35:27;100378.59;;;-3.35;100.00
45357;BME280;31092;51.924;21.448;2023-12-04T06:38:00;100408.78;;;-3.23;100.00
45357;BME280;31092;51.924;21.448;2023-12-04T06:40:31;100379.81;;;-3.42;100.00
45357;BME280;31092;51.924;21.448;2023-12-04T06:42:57;100290.56;;;-4.02;100.00
45357;BME280;31092;51.924;21.448;2023-12-04T06:45:23;100326.16;;;-3.76;100.00
45357;BME280;31092;51.924;21.448;2023-12-04T06:47:50;100349.25;;;-3.64;100.00
45357;BME280;31092;51.924;21.448;2023-12-04T06:50:16;100408.38;;;-3.33;100.00
45357;BME280;31092;51.924;21.448;2023-12-04T06:52:42;100319.63;;;-3.86;100.00
45357;BME280;31092;51.924;21.448;2023-12-04T06:55:08;100320.19;;;-3.79;100.00
45357;BME280;31092;51.924;21.448;2023-12-04T06:57:34;100416.03;;;-3.28;100.00
45357;BME280;31092;51.924;21.448;2023-12-04T07:00:00;100352.69;;;-3.62;100.00
45357;BME280;31092;51.924;21.448;2023-12-04T07:02:25;100292.88;;;-3.96;100.00
45357;BME280;31092;51.924;21.448;2023-12-04T07:04:51;100351.03;;;-3.64;100.00
45357;BME280;31092;51.924;21.448;2023-12-04T07:07:16;100336.31;;;-3.68;100.00
45357;BME280;31092;51.924;21.448;2023-12-04T07:09:42;100402.25;;;-3.33;100.00
45357;BME280;31092;51.924;21.448;2023-12-04T07:12:08;100352.69;;;-3.62;100.00
45357;BME280;31092;51.924;21.448;2023-12-04T07:14:33;100365.38;;;-3.52;100.00
45357;BME280;31092;51.924;21.448;2023-12-04T07:16:59;100406.19;;;-3.25;100.00
45357;BME280;31092;51.924;21.448;2023-12-04T07:19:25;100431.81;;;-3.09;100.00
45357;BME280;31092;51.924;21.448;2023-12-04T07:21:52;100438.56;;;-3.04;100.00
45357;BME280;31092;51.924;21.448;2023-12-04T07:24:17;100402.50;;;-3.21;100.00
45357;BME280;31092;51.924;21.448;2023-12-04T07:26:43;100332.75;;;-3.67;100.00
45357;BME280;31092;51.924;21.448;2023-12-04T07:29:08;100447.47;;;-3.06;100.00
45357;BME280;31092;51.924;21.448;2023-12-04T07:31:34;100329.50;;;-3.72;100.00
45357;BME280;31092;51.924;21.448;2023-12-04T07:33:59;100464.53;;;-2.96;100.00
45357;BME280;31092;51.924;21.448;2023-12-04T07:36:27;100458.72;;;-3.03;100.00
45357;BME280;31092;51.924;21.448;2023-12-04T07:38:53;100368.25;;;-3.57;100.00
45357;BME280;31092;51.924;21.448;2023-12-04T07:41:19;100374.88;;;-3.48;100.00
45357;BME280;31092;51.924;21.448;2023-12-04T07:43:45;100339.22;;;-3.74;100.00
45357;BME280;31092;51.924;21.448;2023-12-04T07:46:11;100452.81;;;-3.08;100.00
45357;BME280;31092;51.924;21.448;2023-12-04T07:48:37;100453.94;;;-3.14;100.00
45357;BME280;31092;51.924;21.448;2023-12-04T07:51:03;100421.16;;;-3.25;100.00
45357;BME280;31092;51.924;21.448;2023-12-04T07:53:28;100272.00;;;-4.18;100.00
45357;BME280;31092;51.924;21.448;2023-12-04T07:55:54;100421.16;;;-3.25;100.00
45357;BME280;31092;51.924;21.448;2023-12-04T07:58:19;100426.00;;;-3.16;100.00
45357;BME280;31092;51.924;21.448;2023-12-04T08:00:45;100478.28;;;-2.90;100.00
45357;BME280;31092;51.924;21.448;2023-12-04T08:03:10;100455.16;;;-3.02;100.00
45357;BME280;31092;51.924;21.448;2023-12-04T08:05:36;100469.38;;;-2.87;100.00
45357;BME280;31092;51.924;21.448;2023-12-04T08:08:02;100345.50;;;-3.58;100.00
45357;BME280;31092;51.924;21.448;2023-12-04T08:10:27;100426.31;;;-3.05;100.00
45357;BME280;31092;51.924;21.448;2023-12-04T08:12:53;100361.19;;;-3.38;100.00
45357;BME280;31092;51.924;21.448;2023-12-04T08:15:19;100475.53;;;-2.69;100.00
45357;BME280;31092;51.924;21.448;2023-12-04T08:17:44;100436.03;;;-2.88;100.00
45357;BME280;31092;51.924;21.448;2023-12-04T08:20:10;100348.53;;;-3.31;100.00
45357;BME280;31092;51.924;21.448;2023-12-04T08:22:41;100427.34;;;-2.90;100.00
45357;BME280;31092;51.924;21.448;2023-12-04T08:25:09;100417.09;;;-2.96;100.00
45357;BME280;31092;51.924;21.448;2023-12-04T08:27:35;100465.28;;;-2.58;100.00
45357;BME280;31092;51.924;21.448;2023-12-04T08:30:00;100369.03;;;-3.19;100.00
45357;BME280;31092;51.924;21.448;2023-12-04T08:32:28;100378.41;;;-3.30;100.00
45357;BME280;31092;51.924;21.448;2023-12-04T08:34:54;100389.16;;;-3.18;100.00
45357;BME280;31092;51.924;21.448;2023-12-04T08:37:19;100441.84;;;-2.81;100.00
45357;BME280;31092;51.924;21.448;2023-12-04T08:39:45;100460.41;;;-2.66;100.00
45357;BME280;31092;51.924;21.448;2023-12-04T08:42:11;100380.28;;;-3.15;100.00
45357;BME280;31092;51.924;21.448;2023-12-04T08:44:37;100445.81;;;-2.73;100.00
45357;BME280;31092;51.924;21.448;2023-12-04T08:47:04;100385.25;;;-3.09;100.00
45357;BME280;31092;51.924;21.448;2023-12-04T08:49:30;100468.78;;;-2.57;100.00
45357;BME280;31092;51.924;21.448;2023-12-04T08:51:55;100498.03;;;-2.45;100.00
45357;BME280;31092;51.924;21.448;2023-12-04T08:54:21;100400.03;;;-3.06;100.00
45357;BME280;31092;51.924;21.448;2023-12-04T08:56:46;100482.34;;;-2.65;100.00
45357;BME280;31092;51.924;21.448;2023-12-04T08:59:12;100388.41;;;-3.20;100.00
45357;BME280;31092;51.924;21.448;2023-12-04T09:01:38;100477.31;;;-2.70;100.00
45357;BME280;31092;51.924;21.448;2023-12-04T09:04:04;100468.06;;;-2.78;100.00
45357;BME280;31092;51.924;21.448;2023-12-04T09:06:30;100396.22;;;-3.18;100.00
45357;BME280;31092;51.924;21.448;2023-12-04T09:08:55;100503.84;;;-2.55;100.00
45357;BME280;31092;51.924;21.448;2023-12-04T09:11:20;100469.31;;;-2.68;100.00
45357;BME280;31092;51.924;21.448;2023-12-04T09:13:46;100505.88;;;-2.43;100.00
45357;BME280;31092;51.924;21.448;2023-12-04T09:16:11;100406.50;;;-2.95;100.00
45357;BME280;31092;51.924;21.448;2023-12-04T09:18:37;100473.81;;;-2.53;100.00
45357;BME280;31092;51.924;21.448;2023-12-04T09:21:03;100473.66;;;-2.50;100.00
45357;BME280;31092;51.924;21.448;2023-12-04T09:23:29;100500.53;;;-2.42;100.00
45357;BME280;31092;51.924;21.448;2023-12-04T09:25:56;100389.28;;;-3.02;100.00
45357;BME280;31092;51.924;21.448;2023-12-04T09:28:21;100477.56;;;-2.39;100.00
45357;BME280;31092;51.924;21.448;2023-12-04T09:30:47;100464.34;;;-2.39;100.00
45357;BME280;31092;51.924;21.448;2023-12-04T09:33:12;100403.63;;;-2.73;100.00
45357;BME280;31092;51.924;21.448;2023-12-04T09:35:38;100421.56;;;-2.62;100.00
45357;BME280;31092;51.924;21.448;2023-12-04T09:38:03;100497.88;;;-2.24;100.00
45357;BME280;31092;51.924;21.448;2023-12-04T09:40:29;100401.06;;;-2.74;100.00
45357;BME280;31092;51.924;21.448;2023-12-04T09:42:55;100394.78;;;-2.72;100.00
45357;BME280;31092;51.924;21.448;2023-12-04T09:45:20;100420.38;;;-2.56;100.00
45357;BME280;31092;51.924;21.448;2023-12-04T09:47:48;100384.34;;;-2.73;100.00
45357;BME280;31092;51.924;21.448;2023-12-04T09:50:16;100474.06;;;-2.23;100.00
45357;BME280;31092;51.924;21.448;2023-12-04T09:52:49;100440.91;;;-2.46;100.00
45357;BME280;31092;51.924;21.448;2023-12-04T09:55:18;100389.13;;;-2.64;100.00
45357;BME280;31092;51.924;21.448;2023-12-04T09:57:44;100430.75;;;-2.36;100.00
45357;BME280;31092;51.924;21.448;2023-12-04T10:00:15;100379.97;;;-2.74;100.00
45357;BME280;31092;51.924;21.448;2023-12-04T10:02:41;100386.03;;;-2.72;100.00
45357;BME280;31092;51.924;21.448;2023-12-04T10:05:07;100391.75;;;-2.64;100.00
45357;BME280;31092;51.924;21.448;2023-12-04T10:07:33;100485.28;;;-2.02;100.00
45357;BME280;31092;51.924;21.448;2023-12-04T10:09:59;100445.09;;;-2.24;100.00
45357;BME280;31092;51.924;21.448;2023-12-04T10:12:25;100405.16;;;-2.34;100.00
45357;BME280;31092;51.924;21.448;2023-12-04T10:15:06;100472.81;;;-1.82;100.00
45357;BME280;31092;51.924;21.448;2023-12-04T10:17:37;100367.75;;;-2.42;100.00
45357;BME280;31092;51.924;21.448;2023-12-04T10:20:10;100471.38;;;-1.88;100.00
45357;BME280;31092;51.924;21.448;2023-12-04T10:23:23;100410.56;;;-2.20;100.00
45357;BME280;31092;51.924;21.448;2023-12-04T10:25:27;100468.75;;;-1.88;100.00
45357;BME280;31092;51.924;21.448;2023-12-04T10:28:15;100374.97;;;-2.46;100.00
45357;BME280;31092;51.924;21.448;2023-12-04T10:30:41;100448.06;;;-2.13;100.00
45357;BME280;31092;51.924;21.448;2023-12-04T10:33:07;100472.41;;;-2.08;100.00
45357;BME280;31092;51.924;21.448;2023-12-04T10:35:34;100396.56;;;-2.55;100.00
45357;BME280;31092;51.924;21.448;2023-12-04T10:38:05;100412.84;;;-2.47;100.00
45357;BME280;31092;51.924;21.448;2023-12-04T10:40:32;100391.69;;;-2.62;100.00
45357;BME280;31092;51.924;21.448;2023-12-04T10:45:39;100481.03;;;-2.04;100.00
45357;BME280;31092;51.924;21.448;2023-12-04T10:48:06;100375.94;;;-2.64;100.00
45357;BME280;31092;51.924;21.448;2023-12-04T10:50:36;100427.16;;;-2.18;100.00
45357;BME280;31092;51.924;21.448;2023-12-04T10:53:04;100418.69;;;-2.07;100.00
45357;BME280;31092;51.924;21.448;2023-12-04T10:55:34;100483.56;;;-1.52;100.00
45357;BME280;31092;51.924;21.448;2023-12-04T10:58:01;100365.91;;;-2.07;100.00
45357;BME280;31092;51.924;21.448;2023-12-04T11:00:30;100481.34;;;-1.44;100.00
45357;BME280;31092;51.924;21.448;2023-12-04T11:03:04;100466.06;;;-1.55;100.00
45357;BME280;31092;51.924;21.448;2023-12-04T11:05:31;100374.91;;;-2.11;100.00
45357;BME280;31092;51.924;21.448;2023-12-04T11:08:01;100492.91;;;-1.47;100.00
45357;BME280;31092;51.924;21.448;2023-12-04T11:10:29;100463.00;;;-1.47;100.00
45357;BME280;31092;51.924;21.448;2023-12-04T11:13:01;100461.22;;;-1.47;100.00
45357;BME280;31092;51.924;21.448;2023-12-04T11:15:29;100469.06;;;-1.29;100.00
45357;BME280;31092;51.924;21.448;2023-12-04T11:17:59;100469.16;;;-1.31;100.00
45357;BME280;31092;51.924;21.448;2023-12-04T11:20:29;100379.41;;;-1.96;100.00
45357;BME280;31092;51.924;21.448;2023-12-04T11:22:56;100364.81;;;-2.03;100.00
45357;BME280;31092;51.924;21.448;2023-12-04T11:25:23;100483.75;;;-1.24;100.00
45357;BME280;31092;51.924;21.448;2023-12-04T11:28:03;100394.97;;;-1.75;100.00
45357;BME280;31092;51.924;21.448;2023-12-04T11:30:29;100444.94;;;-1.55;100.00
45357;BME280;31092;51.924;21.448;2023-12-04T11:32:55;100472.56;;;-1.45;100.00
45357;BME280;31092;51.924;21.448;2023-12-04T11:35:27;100482.03;;;-1.40;100.00
45357;BME280;31092;51.924;21.448;2023-12-04T11:37:53;100400.63;;;-1.81;100.00
45357;BME280;31092;51.924;21.448;2023-12-04T11:40:18;100378.13;;;-1.88;100.00
45357;BME280;31092;51.924;21.448;2023-12-04T11:42:44;100440.06;;;-1.47;100.00
45357;BME280;31092;51.924;21.448;2023-12-04T11:45:10;100402.41;;;-1.66;100.00
45357;BME280;31092;51.924;21.448;2023-12-04T11:48:03;100490.28;;;-1.15;100.00
45357;BME280;31092;51.924;21.448;2023-12-04T11:50:29;100388.00;;;-1.76;100.00
45357;BME280;31092;51.924;21.448;2023-12-04T11:52:55;100420.66;;;-1.61;100.00
45357;BME280;31092;51.924;21.448;2023-12-04T11:55:22;100405.13;;;-1.83;100.00
45357;BME280;31092;51.924;21.448;2023-12-04T11:57:53;100494.38;;;-1.25;100.00
45357;BME280;31092;51.924;21.448;2023-12-04T12:00:21;100398.16;;;-1.84;100.00
45357;BME280;31092;51.924;21.448;2023-12-04T12:05:19;100501.19;;;-1.21;100.00
45357;BME280;31092;51.924;21.448;2023-12-04T12:07:45;100477.84;;;-1.29;100.00
45357;BME280;31092;51.924;21.448;2023-12-04T12:10:12;100472.91;;;-1.19;100.00
45357;BME280;31092;51.924;21.448;2023-12-04T12:12:41;100473.34;;;-0.95;100.00
45357;BME280;31092;51.924;21.448;2023-12-04T12:15:11;100458.66;;;-1.01;100.00
45357;BME280;31092;51.924;21.448;2023-12-04T12:17:41;100375.75;;;-1.46;100.00
45357;BME280;31092;51.924;21.448;2023-12-04T12:20:12;100470.94;;;-0.84;100.00
45357;BME280;31092;51.924;21.448;2023-12-04T12:22:38;100469.31;;;-0.86;100.00
45357;BME280;31092;51.924;21.448;2023-12-04T12:25:07;100385.13;;;-1.56;100.00
45357;BME280;31092;51.924;21.448;2023-12-04T12:27:33;100398.50;;;-1.59;100.00
45357;BME280;31092;51.924;21.448;2023-12-04T12:29:59;100489.03;;;-1.08;100.00
45357;BME280;31092;51.924;21.448;2023-12-04T12:32:26;100474.28;;;-1.12;100.00